Date,TemperatureHighF,TemperatureAvgF,TemperatureLowF,DewpointHighF,DewpointAvgF,DewpointLowF,HumidityHigh,HumidityAvg,HumidityLow,PressureMaxIn,PressureMinIn,WindSpeedMaxMPH,WindSpeedAvgMPH,GustSpeedMaxMPH,PrecipitationSumIn
2013-3-1,37,32,28,-100,-100,-100,0,0,100,0.00,40.00,0,-999,0,0.00
2013-3-2,45,38,27,-100,-100,-100,0,0,100,0.00,40.00,0,-999,0,0.00
2013-3-3,39,32,23,-100,-100,-100,0,0,100,0.00,40.00,0,-999,0,0.00
2013-3-4,39,27,14,-100,-100,-100,0,0,100,0.00,40.00,0,-999,0,0.00
2013-3-5,37,32,28,-100,-100,-100,0,0,100,0.00,40.00,0,-999,0,0.00
2013-3-6,45,34,27,-100,-100,-100,0,0,100,0.00,40.00,0,-999,0,0.00
2013-3-7,43,29,19,-100,-100,-100,0,0,100,0.00,40.00,0,-999,0,0.00
2013-3-8,46,32,16,-100,-100,-100,0,0,100,0.00,40.00,0,-999,0,0.00
2013-3-9,46,34,25,-100,-100,-100,0,0,100,0.00,40.00,0,-999,0,0.00
2013-3-10,48,32,16,-100,-100,-100,0,0,100,0.00,40.00,0,-999,0,0.00
2013-3-11,46,40,36,-100,-100,-100,0,0,100,0.00,40.00,0,-999,0,0.00
2013-3-12,55,44,25,-100,-100,-100,0,0,100,0.00,40.00,0,-999,0,0.00
2013-3-13,59,45,30,-100,-100,-100,0,0,100,0.00,40.00,0,-999,0,0.00
2013-3-14,59,48,27,-100,-100,-100,0,0,100,0.00,40.00,0,-999,0,0.00
2013-3-15,55,46,36,-100,-100,-100,0,0,100,0.00,40.00,0,-999,0,0.00
2013-3-16,48,36,27,-100,-100,-100,0,0,100,0.00,40.00,0,-999,0,0.00
2013-3-17,37,30,27,-100,-100,-100,0,0,100,0.00,40.00,0,-999,0,0.00
2013-3-18,45,33,25,-100,-100,-100,0,0,100,0.00,40.00,0,-999,0,0.00
2013-3-19,46,36,14,-100,-100,-100,0,0,100,0.00,40.00,0,-999,0,0.00
2013-3-20,50,40,30,-100,-100,-100,0,0,100,0.00,40.00,0,-999,0,0.00
2013-3-21,37,30,25,-100,-100,-100,0,0,100,0.00,40.00,0,-999,0,0.00
2013-3-22,32,26,21,-100,-100,-100,0,0,100,0.00,40.00,0,-999,0,0.00
2013-3-23,37,25,12,-100,-100,-100,0,0,100,0.00,40.00,0,-999,0,0.00
2013-3-24,41,29,12,-100,-100,-100,0,0,100,0.00,40.00,0,-999,0,0.00
2013-3-25,45,36,28,-100,-100,-100,0,0,100,0.00,40.00,0,-999,0,0.00
2013-3-26,55,41,32,-100,-100,-100,0,0,100,0.00,40.00,0,-999,0,0.00
2013-3-27,54,39,25,-100,-100,-100,0,0,100,0.00,40.00,0,-999,0,0.00
2013-3-28,61,49,27,-100,-100,-100,0,0,100,0.00,40.00,0,-999,0,0.00
2013-3-29,57,46,39,-100,-100,-100,0,0,100,0.00,40.00,0,-999,0,0.00
2013-3-30,64,44,27,-100,-100,-100,0,0,100,0.00,40.00,0,-999,0,0.00
2013-3-31,68,48,23,-100,-100,-100,0,0,100,0.00,40.00,0,-999,0,0.00